sensor_id;sensor_type;location;lat;lon;timestamp;P1;durP1;ratioP1;P2;durP2;ratioP2
15049;SDS011;7622;42.724;23.250;2024-03-23T00:54:49;16.83;;;10.77;;
15049;SDS011;7622;42.724;23.250;2024-03-23T00:57:15;16.53;;;10.53;;
15049;SDS011;7622;42.724;23.250;2024-03-23T00:59:41;14.83;;;9.83;;
15049;SDS011;7622;42.724;23.250;2024-03-23T01:02:07;20.60;;;9.63;;
15049;SDS011;7622;42.724;23.250;2024-03-23T01:04:33;19.30;;;10.47;;
15049;SDS011;7622;42.724;23.250;2024-03-23T01:06:59;11.93;;;8.50;;
15049;SDS011;7622;42.724;23.250;2024-03-23T01:09:27;14.93;;;8.87;;
15049;SDS011;7622;42.724;23.250;2024-03-23T01:11:53;11.40;;;7.57;;
15049;SDS011;7622;42.724;23.250;2024-03-23T01:14:20;12.77;;;8.03;;
15049;SDS011;7622;42.724;23.250;2024-03-23T01:16:45;10.53;;;6.90;;
15049;SDS011;7622;42.724;23.250;2024-03-23T01:19:12;11.80;;;6.50;;
15049;SDS011;7622;42.724;23.250;2024-03-23T01:21:38;10.93;;;7.50;;
15049;SDS011;7622;42.724;23.250;2024-03-23T01:24:05;12.27;;;7.53;;
15049;SDS011;7622;42.724;23.250;2024-03-23T01:26:32;10.30;;;8.10;;
15049;SDS011;7622;42.724;23.250;2024-03-23T01:28:58;15.37;;;8.17;;
15049;SDS011;7622;42.724;23.250;2024-03-23T01:31:24;9.10;;;7.03;;
15049;SDS011;7622;42.724;23.250;2024-03-23T01:33:51;10.97;;;7.50;;
15049;SDS011;7622;42.724;23.250;2024-03-23T01:36:17;10.43;;;8.00;;
15049;SDS011;7622;42.724;23.250;2024-03-23T01:38:44;11.87;;;7.03;;
15049;SDS011;7622;42.724;23.250;2024-03-23T01:41:10;14.27;;;7.80;;
15049;SDS011;7622;42.724;23.250;2024-03-23T01:43:38;13.57;;;6.93;;
15049;SDS011;7622;42.724;23.250;2024-03-23T01:46:04;10.90;;;7.80;;
15049;SDS011;7622;42.724;23.250;2024-03-23T01:48:30;10.77;;;7.07;;
15049;SDS011;7622;42.724;23.250;2024-03-23T01:50:56;9.03;;;7.23;;
15049;SDS011;7622;42.724;23.250;2024-03-23T01:53:23;12.60;;;7.10;;
15049;SDS011;7622;42.724;23.250;2024-03-23T01:55:50;11.40;;;7.30;;
15049;SDS011;7622;42.724;23.250;2024-03-23T01:58:17;11.70;;;7.93;;
15049;SDS011;7622;42.724;23.250;2024-03-23T02:00:44;15.07;;;8.03;;
15049;SDS011;7622;42.724;23.250;2024-03-23T02:05:54;13.20;;;7.77;;
15049;SDS011;7622;42.724;23.250;2024-03-23T02:08:22;10.00;;;7.50;;
15049;SDS011;7622;42.724;23.250;2024-03-23T02:10:48;13.23;;;7.33;;
15049;SDS011;7622;42.724;23.250;2024-03-23T02:13:16;11.90;;;7.67;;
15049;SDS011;7622;42.724;23.250;2024-03-23T02:15:44;11.67;;;7.23;;
15049;SDS011;7622;42.724;23.250;2024-03-23T02:18:10;11.30;;;6.80;;
15049;SDS011;7622;42.724;23.250;2024-03-23T02:20:36;9.53;;;6.90;;
15049;SDS011;7622;42.724;23.250;2024-03-23T02:23:05;14.33;;;8.30;;
15049;SDS011;7622;42.724;23.250;2024-03-23T02:25:31;12.57;;;7.27;;
15049;SDS011;7622;42.724;23.250;2024-03-23T02:27:58;11.73;;;7.40;;
15049;SDS011;7622;42.724;23.250;2024-03-23T02:30:24;13.73;;;7.77;;
15049;SDS011;7622;42.724;23.250;2024-03-23T02:32:51;11.17;;;7.37;;
15049;SDS011;7622;42.724;23.250;2024-03-23T02:35:16;9.43;;;6.53;;
15049;SDS011;7622;42.724;23.250;2024-03-23T02:37:43;10.60;;;6.90;;
15049;SDS011;7622;42.724;23.250;2024-03-23T02:40:10;15.80;;;7.43;;
15049;SDS011;7622;42.724;23.250;2024-03-23T02:42:37;11.03;;;7.30;;
15049;SDS011;7622;42.724;23.250;2024-03-23T02:45:03;11.57;;;7.03;;
15049;SDS011;7622;42.724;23.250;2024-03-23T02:47:30;10.30;;;6.77;;
15049;SDS011;7622;42.724;23.250;2024-03-23T02:49:56;9.53;;;7.00;;
15049;SDS011;7622;42.724;23.250;2024-03-23T02:52:22;12.13;;;6.77;;
15049;SDS011;7622;42.724;23.250;2024-03-23T02:54:48;8.70;;;6.57;;
15049;SDS011;7622;42.724;23.250;2024-03-23T02:57:16;10.83;;;7.10;;
15049;SDS011;7622;42.724;23.250;2024-03-23T02:59:42;8.93;;;7.00;;
15049;SDS011;7622;42.724;23.250;2024-03-23T03:02:09;12.73;;;7.33;;
15049;SDS011;7622;42.724;23.250;2024-03-23T03:04:34;10.07;;;7.13;;
15049;SDS011;7622;42.724;23.250;2024-03-23T03:07:01;13.03;;;7.87;;
15049;SDS011;7622;42.724;23.250;2024-03-23T03:09:27;10.70;;;7.73;;
15049;SDS011;7622;42.724;23.250;2024-03-23T03:11:53;13.13;;;7.03;;
15049;SDS011;7622;42.724;23.250;2024-03-23T03:14:20;12.63;;;7.70;;
15049;SDS011;7622;42.724;23.250;2024-03-23T03:16:47;9.17;;;6.87;;
15049;SDS011;7622;42.724;23.250;2024-03-23T03:19:13;7.40;;;6.73;;
15049;SDS011;7622;42.724;23.250;2024-03-23T03:21:41;13.53;;;8.43;;
15049;SDS011;7622;42.724;23.250;2024-03-23T03:24:07;8.87;;;6.43;;
15049;SDS011;7622;42.724;23.250;2024-03-23T03:26:34;8.23;;;6.67;;
15049;SDS011;7622;42.724;23.250;2024-03-23T03:28:59;10.73;;;7.63;;
15049;SDS011;7622;42.724;23.250;2024-03-23T03:31:27;9.70;;;7.80;;
15049;SDS011;7622;42.724;23.250;2024-03-23T03:33:53;12.93;;;6.97;;
15049;SDS011;7622;42.724;23.250;2024-03-23T03:36:20;13.67;;;8.23;;
15049;SDS011;7622;42.724;23.250;2024-03-23T03:38:46;11.67;;;7.90;;
15049;SDS011;7622;42.724;23.250;2024-03-23T03:41:12;12.00;;;7.00;;
15049;SDS011;7622;42.724;23.250;2024-03-23T03:43:38;14.10;;;8.17;;
15049;SDS011;7622;42.724;23.250;2024-03-23T03:46:05;14.20;;;7.87;;
15049;SDS011;7622;42.724;23.250;2024-03-23T03:48:34;14.57;;;8.30;;
15049;SDS011;7622;42.724;23.250;2024-03-23T03:51:01;13.40;;;8.37;;
15049;SDS011;7622;42.724;23.250;2024-03-23T03:53:27;14.23;;;8.67;;
15049;SDS011;7622;42.724;23.250;2024-03-23T03:55:53;12.27;;;7.67;;
15049;SDS011;7622;42.724;23.250;2024-03-23T03:58:19;19.17;;;9.23;;
15049;SDS011;7622;42.724;23.250;2024-03-23T04:00:46;9.53;;;7.47;;
15049;SDS011;7622;42.724;23.250;2024-03-23T04:03:11;13.27;;;7.63;;
15049;SDS011;7622;42.724;23.250;2024-03-23T04:05:40;17.10;;;7.53;;
15049;SDS011;7622;42.724;23.250;2024-03-23T04:08:07;16.10;;;7.03;;
15049;SDS011;7622;42.724;23.250;2024-03-23T04:10:33;11.70;;;7.17;;
15049;SDS011;7622;42.724;23.250;2024-03-23T04:12:59;16.27;;;7.67;;
15049;SDS011;7622;42.724;23.250;2024-03-23T04:15:29;9.57;;;6.97;;
15049;SDS011;7622;42.724;23.250;2024-03-23T04:17:55;9.60;;;6.27;;
15049;SDS011;7622;42.724;23.250;2024-03-23T04:20:21;8.90;;;6.80;;
15049;SDS011;7622;42.724;23.250;2024-03-23T04:22:48;9.57;;;6.57;;
15049;SDS011;7622;42.724;23.250;2024-03-23T04:25:15;12.50;;;7.07;;
15049;SDS011;7622;42.724;23.250;2024-03-23T04:27:41;9.80;;;6.73;;
15049;SDS011;7622;42.724;23.250;2024-03-23T04:30:08;10.13;;;6.93;;
15049;SDS011;7622;42.724;23.250;2024-03-23T04:32:36;15.20;;;7.07;;
15049;SDS011;7622;42.724;23.250;2024-03-23T04:35:03;12.53;;;6.83;;
15049;SDS011;7622;42.724;23.250;2024-03-23T04:37:31;18.17;;;7.20;;
15049;SDS011;7622;42.724;23.250;2024-03-23T04:40:00;13.47;;;7.50;;
15049;SDS011;7622;42.724;23.250;2024-03-23T04:42:28;13.70;;;7.43;;
15049;SDS011;7622;42.724;23.250;2024-03-23T04:44:54;11.83;;;6.97;;
15049;SDS011;7622;42.724;23.250;2024-03-23T04:47:21;12.53;;;7.83;;
15049;SDS011;7622;42.724;23.250;2024-03-23T04:49:48;16.33;;;8.27;;
15049;SDS011;7622;42.724;23.250;2024-03-23T04:52:15;18.50;;;8.20;;
15049;SDS011;7622;42.724;23.250;2024-03-23T04:54:42;18.87;;;9.27;;
15049;SDS011;7622;42.724;23.250;2024-03-23T04:57:10;16.17;;;10.27;;
15049;SDS011;7622;42.724;23.250;2024-03-23T04:59:37;19.77;;;10.07;;
15049;SDS011;7622;42.724;23.250;2024-03-23T05:02:03;21.90;;;11.00;;
15049;SDS011;7622;42.724;23.250;2024-03-23T05:04:29;18.73;;;10.97;;
15049;SDS011;7622;42.724;23.250;2024-03-23T05:06:57;20.00;;;10.23;;
15049;SDS011;7622;42.724;23.250;2024-03-23T05:09:24;23.70;;;10.23;;
15049;SDS011;7622;42.724;23.250;2024-03-23T05:11:55;22.63;;;10.37;;
15049;SDS011;7622;42.724;23.250;2024-03-23T05:14:23;19.10;;;10.50;;
15049;SDS011;7622;42.724;23.250;2024-03-23T05:16:48;17.87;;;11.07;;
15049;SDS011;7622;42.724;23.250;2024-03-23T05:19:15;26.03;;;12.50;;
15049;SDS011;7622;42.724;23.250;2024-03-23T05:21:41;18.60;;;11.47;;
15049;SDS011;7622;42.724;23.250;2024-03-23T05:24:08;26.37;;;11.93;;
15049;SDS011;7622;42.724;23.250;2024-03-23T05:26:34;24.57;;;13.30;;
15049;SDS011;7622;42.724;23.250;2024-03-23T05:29:01;29.00;;;13.87;;
15049;SDS011;7622;42.724;23.250;2024-03-23T05:31:29;26.43;;;13.97;;
15049;SDS011;7622;42.724;23.250;2024-03-23T05:33:56;22.23;;;13.77;;
15049;SDS011;7622;42.724;23.250;2024-03-23T05:36:22;33.80;;;15.10;;
15049;SDS011;7622;42.724;23.250;2024-03-23T05:38:50;26.77;;;13.97;;
15049;SDS011;7622;42.724;23.250;2024-03-23T05:41:15;26.00;;;13.70;;
15049;SDS011;7622;42.724;23.250;2024-03-23T05:43:42;20.93;;;12.27;;
15049;SDS011;7622;42.724;23.250;2024-03-23T05:46:08;23.40;;;12.93;;
15049;SDS011;7622;42.724;23.250;2024-03-23T05:48:36;21.83;;;11.83;;
15049;SDS011;7622;42.724;23.250;2024-03-23T05:51:02;32.20;;;13.03;;
15049;SDS011;7622;42.724;23.250;2024-03-23T05:53:29;22.03;;;12.47;;
15049;SDS011;7622;42.724;23.250;2024-03-23T05:56:00;19.50;;;11.93;;
15049;SDS011;7622;42.724;23.250;2024-03-23T05:58:29;31.80;;;12.77;;
15049;SDS011;7622;42.724;23.250;2024-03-23T06:00:56;28.03;;;12.40;;
15049;SDS011;7622;42.724;23.250;2024-03-23T06:03:25;17.13;;;10.93;;
15049;SDS011;7622;42.724;23.250;2024-03-23T06:05:52;17.87;;;11.40;;
15049;SDS011;7622;42.724;23.250;2024-03-23T06:08:19;17.40;;;11.20;;
15049;SDS011;7622;42.724;23.250;2024-03-23T06:10:45;18.03;;;10.50;;
15049;SDS011;7622;42.724;23.250;2024-03-23T06:13:12;12.27;;;8.97;;
15049;SDS011;7622;42.724;23.250;2024-03-23T06:15:38;17.10;;;10.17;;
15049;SDS011;7622;42.724;23.250;2024-03-23T06:18:05;18.00;;;9.90;;
15049;SDS011;7622;42.724;23.250;2024-03-23T06:20:32;18.07;;;10.17;;
15049;SDS011;7622;42.724;23.250;2024-03-23T06:23:01;17.90;;;10.23;;
15049;SDS011;7622;42.724;23.250;2024-03-23T06:25:26;15.47;;;11.27;;
15049;SDS011;7622;42.724;23.250;2024-03-23T06:27:53;17.50;;;10.37;;
15049;SDS011;7622;42.724;23.250;2024-03-23T06:30:20;18.67;;;10.90;;
15049;SDS011;7622;42.724;23.250;2024-03-23T06:32:47;15.80;;;9.93;;
15049;SDS011;7622;42.724;23.250;2024-03-23T06:35:12;14.83;;;10.33;;
15049;SDS011;7622;42.724;23.250;2024-03-23T06:37:39;17.43;;;11.20;;
15049;SDS011;7622;42.724;23.250;2024-03-23T06:40:08;25.13;;;11.80;;
15049;SDS011;7622;42.724;23.250;2024-03-23T06:42:35;22.67;;;12.03;;
15049;SDS011;7622;42.724;23.250;2024-03-23T06:45:01;27.20;;;13.13;;
15049;SDS011;7622;42.724;23.250;2024-03-23T06:47:28;22.03;;;12.70;;
15049;SDS011;7622;42.724;23.250;2024-03-23T06:49:54;20.53;;;12.77;;
15049;SDS011;7622;42.724;23.250;2024-03-23T06:52:21;54.30;;;16.37;;
15049;SDS011;7622;42.724;23.250;2024-03-23T06:54:46;27.07;;;14.50;;
15049;SDS011;7622;42.724;23.250;2024-03-23T06:57:15;22.53;;;13.87;;
15049;SDS011;7622;42.724;23.250;2024-03-23T06:59:40;30.47;;;14.80;;
15049;SDS011;7622;42.724;23.250;2024-03-23T07:02:07;30.07;;;14.17;;
15049;SDS011;7622;42.724;23.250;2024-03-23T07:04:33;41.60;;;14.83;;
15049;SDS011;7622;42.724;23.250;2024-03-23T07:07:00;30.15;;;15.05;;
15049;SDS011;7622;42.724;23.250;2024-03-23T07:09:27;24.53;;;13.27;;
15049;SDS011;7622;42.724;23.250;2024-03-23T07:11:54;20.73;;;11.83;;
15049;SDS011;7622;42.724;23.250;2024-03-23T07:14:21;25.48;;;13.50;;
15049;SDS011;7622;42.724;23.250;2024-03-23T07:16:48;19.37;;;10.87;;
15049;SDS011;7622;42.724;23.250;2024-03-23T07:19:14;21.43;;;11.37;;
15049;SDS011;7622;42.724;23.250;2024-03-23T07:21:41;17.73;;;10.13;;
15049;SDS011;7622;42.724;23.250;2024-03-23T07:24:07;12.90;;;9.97;;
15049;SDS011;7622;42.724;23.250;2024-03-23T07:26:34;13.50;;;9.40;;
15049;SDS011;7622;42.724;23.250;2024-03-23T07:29:00;14.97;;;9.63;;
15049;SDS011;7622;42.724;23.250;2024-03-23T07:31:28;17.07;;;9.53;;
15049;SDS011;7622;42.724;23.250;2024-03-23T07:33:54;20.20;;;9.60;;
15049;SDS011;7622;42.724;23.250;2024-03-23T07:36:21;13.63;;;8.17;;
15049;SDS011;7622;42.724;23.250;2024-03-23T07:38:46;15.93;;;8.60;;
15049;SDS011;7622;42.724;23.250;2024-03-23T07:41:14;16.43;;;9.17;;
15049;SDS011;7622;42.724;23.250;2024-03-23T07:43:42;15.33;;;10.27;;
15049;SDS011;7622;42.724;23.250;2024-03-23T07:46:09;11.37;;;8.60;;
15049;SDS011;7622;42.724;23.250;2024-03-23T07:48:36;13.93;;;8.57;;
15049;SDS011;7622;42.724;23.250;2024-03-23T07:51:03;11.53;;;8.90;;
15049;SDS011;7622;42.724;23.250;2024-03-23T07:53:30;10.47;;;8.10;;
15049;SDS011;7622;42.724;23.250;2024-03-23T07:55:57;13.53;;;7.37;;
15049;SDS011;7622;42.724;23.250;2024-03-23T07:58:24;11.67;;;8.17;;
15049;SDS011;7622;42.724;23.250;2024-03-23T08:00:51;9.53;;;7.17;;
15049;SDS011;7622;42.724;23.250;2024-03-23T08:03:17;11.40;;;8.60;;
15049;SDS011;7622;42.724;23.250;2024-03-23T08:05:46;13.80;;;8.50;;
15049;SDS011;7622;42.724;23.250;2024-03-23T08:08:12;12.90;;;8.57;;
15049;SDS011;7622;42.724;23.250;2024-03-23T08:10:46;9.60;;;7.67;;
15049;SDS011;7622;42.724;23.250;2024-03-23T08:13:13;13.90;;;7.37;;
15049;SDS011;7622;42.724;23.250;2024-03-23T08:15:39;12.17;;;7.77;;
15049;SDS011;7622;42.724;23.250;2024-03-23T08:18:05;16.23;;;7.90;;
15049;SDS011;7622;42.724;23.250;2024-03-23T08:20:32;12.90;;;7.87;;
15049;SDS011;7622;42.724;23.250;2024-03-23T08:22:59;11.60;;;8.40;;
15049;SDS011;7622;42.724;23.250;2024-03-23T08:25:26;11.53;;;8.57;;
15049;SDS011;7622;42.724;23.250;2024-03-23T08:27:51;14.50;;;7.87;;
15049;SDS011;7622;42.724;23.250;2024-03-23T08:30:18;18.23;;;8.23;;
15049;SDS011;7622;42.724;23.250;2024-03-23T08:32:44;12.23;;;8.23;;
15049;SDS011;7622;42.724;23.250;2024-03-23T08:35:11;14.17;;;8.90;;
15049;SDS011;7622;42.724;23.250;2024-03-23T08:37:37;15.80;;;8.97;;
15049;SDS011;7622;42.724;23.250;2024-03-23T08:40:05;15.43;;;8.20;;
15049;SDS011;7622;42.724;23.250;2024-03-23T08:42:33;11.77;;;9.17;;
15049;SDS011;7622;42.724;23.250;2024-03-23T08:45:00;9.90;;;7.70;;
15049;SDS011;7622;42.724;23.250;2024-03-23T08:47:26;19.73;;;9.20;;
15049;SDS011;7622;42.724;23.250;2024-03-23T08:49:52;11.80;;;8.77;;
15049;SDS011;7622;42.724;23.250;2024-03-23T08:52:18;15.43;;;9.17;;
15049;SDS011;7622;42.724;23.250;2024-03-23T08:54:45;14.57;;;8.83;;
15049;SDS011;7622;42.724;23.250;2024-03-23T08:57:12;13.30;;;8.83;;
15049;SDS011;7622;42.724;23.250;2024-03-23T08:59:39;12.13;;;8.90;;
15049;SDS011;7622;42.724;23.250;2024-03-23T09:02:05;16.07;;;9.30;;
15049;SDS011;7622;42.724;23.250;2024-03-23T09:04:31;19.00;;;9.10;;
15049;SDS011;7622;42.724;23.250;2024-03-23T09:06:57;17.67;;;8.93;;
15049;SDS011;7622;42.724;23.250;2024-03-23T09:09:25;13.63;;;9.10;;
15049;SDS011;7622;42.724;23.250;2024-03-23T09:11:51;10.40;;;9.23;;
15049;SDS011;7622;42.724;23.250;2024-03-23T09:14:19;17.83;;;9.60;;
15049;SDS011;7622;42.724;23.250;2024-03-23T09:16:45;12.20;;;9.70;;
15049;SDS011;7622;42.724;23.250;2024-03-23T09:19:11;20.67;;;9.50;;
15049;SDS011;7622;42.724;23.250;2024-03-23T09:21:37;15.30;;;9.73;;
15049;SDS011;7622;42.724;23.250;2024-03-23T09:24:04;13.13;;;9.80;;
15049;SDS011;7622;42.724;23.250;2024-03-23T09:26:30;11.30;;;8.63;;
15049;SDS011;7622;42.724;23.250;2024-03-23T09:28:57;13.80;;;8.87;;
15049;SDS011;7622;42.724;23.250;2024-03-23T09:31:24;12.10;;;9.47;;
15049;SDS011;7622;42.724;23.250;2024-03-23T09:33:51;14.67;;;9.17;;
15049;SDS011;7622;42.724;23.250;2024-03-23T09:36:16;12.30;;;9.80;;
15049;SDS011;7622;42.724;23.250;2024-03-23T09:38:43;11.60;;;9.40;;
15049;SDS011;7622;42.724;23.250;2024-03-23T09:41:09;12.17;;;9.07;;
15049;SDS011;7622;42.724;23.250;2024-03-23T09:43:37;15.10;;;9.03;;
15049;SDS011;7622;42.724;23.250;2024-03-23T09:46:03;12.07;;;9.20;;
15049;SDS011;7622;42.724;23.250;2024-03-23T09:48:32;11.87;;;9.27;;
15049;SDS011;7622;42.724;23.250;2024-03-23T09:50:58;13.60;;;10.00;;
15049;SDS011;7622;42.724;23.250;2024-03-23T09:53:24;21.10;;;9.13;;
15049;SDS011;7622;42.724;23.250;2024-03-23T09:55:50;12.47;;;8.40;;
15049;SDS011;7622;42.724;23.250;2024-03-23T09:58:17;17.03;;;8.83;;
15049;SDS011;7622;42.724;23.250;2024-03-23T10:00:43;10.17;;;8.17;;
15049;SDS011;7622;42.724;23.250;2024-03-23T10:03:10;18.43;;;8.77;;
15049;SDS011;7622;42.724;23.250;2024-03-23T10:05:37;13.90;;;8.87;;
15049;SDS011;7622;42.724;23.250;2024-03-23T10:08:17;12.13;;;8.40;;
15049;SDS011;7622;42.724;23.250;2024-03-23T10:10:44;13.87;;;8.20;;
15049;SDS011;7622;42.724;23.250;2024-03-23T10:13:12;13.07;;;8.70;;
15049;SDS011;7622;42.724;23.250;2024-03-23T10:15:54;11.40;;;8.27;;
15049;SDS011;7622;42.724;23.250;2024-03-23T10:18:22;10.70;;;8.33;;
15049;SDS011;7622;42.724;23.250;2024-03-23T10:20:52;16.27;;;8.97;;
15049;SDS011;7622;42.724;23.250;2024-03-23T10:23:33;11.10;;;8.13;;
15049;SDS011;7622;42.724;23.250;2024-03-23T10:26:06;14.80;;;8.20;;
15049;SDS011;7622;42.724;23.250;2024-03-23T10:28:45;12.57;;;8.07;;
15049;SDS011;7622;42.724;23.250;2024-03-23T10:31:16;11.70;;;7.53;;
15049;SDS011;7622;42.724;23.250;2024-03-23T10:33:44;9.07;;;6.50;;
15049;SDS011;7622;42.724;23.250;2024-03-23T10:36:13;8.53;;;6.63;;
15049;SDS011;7622;42.724;23.250;2024-03-23T10:38:44;13.93;;;6.77;;
15049;SDS011;7622;42.724;23.250;2024-03-23T10:41:12;9.57;;;6.30;;
15049;SDS011;7622;42.724;23.250;2024-03-23T10:43:39;10.03;;;7.10;;
15049;SDS011;7622;42.724;23.250;2024-03-23T10:46:05;14.40;;;7.43;;
15049;SDS011;7622;42.724;23.250;2024-03-23T10:48:32;13.37;;;6.27;;
15049;SDS011;7622;42.724;23.250;2024-03-23T10:50:58;8.33;;;5.60;;
15049;SDS011;7622;42.724;23.250;2024-03-23T10:53:26;10.93;;;6.40;;
15049;SDS011;7622;42.724;23.250;2024-03-23T10:55:53;11.77;;;6.30;;
15049;SDS011;7622;42.724;23.250;2024-03-23T10:58:22;11.60;;;6.20;;
15049;SDS011;7622;42.724;23.250;2024-03-23T11:00:51;10.50;;;5.80;;
15049;SDS011;7622;42.724;23.250;2024-03-23T11:03:31;9.47;;;6.13;;
15049;SDS011;7622;42.724;23.250;2024-03-23T11:05:58;9.70;;;5.33;;
15049;SDS011;7622;42.724;23.250;2024-03-23T11:08:33;8.83;;;5.93;;
15049;SDS011;7622;42.724;23.250;2024-03-23T11:11:19;7.20;;;5.47;;
15049;SDS011;7622;42.724;23.250;2024-03-23T11:13:47;17.03;;;5.07;;
15049;SDS011;7622;42.724;23.250;2024-03-23T11:16:14;5.87;;;4.50;;
15049;SDS011;7622;42.724;23.250;2024-03-23T11:18:42;7.50;;;4.70;;
15049;SDS011;7622;42.724;23.250;2024-03-23T11:21:09;7.50;;;5.03;;
15049;SDS011;7622;42.724;23.250;2024-03-23T11:23:37;5.23;;;4.70;;
15049;SDS011;7622;42.724;23.250;2024-03-23T11:26:06;17.97;;;5.17;;
15049;SDS011;7622;42.724;23.250;2024-03-23T11:28:33;12.03;;;5.23;;
15049;SDS011;7622;42.724;23.250;2024-03-23T11:30:59;7.87;;;4.97;;
15049;SDS011;7622;42.724;23.250;2024-03-23T11:33:26;12.67;;;4.63;;
15049;SDS011;7622;42.724;23.250;2024-03-23T11:35:52;4.60;;;4.10;;
15049;SDS011;7622;42.724;23.250;2024-03-23T11:38:18;8.07;;;4.00;;
15049;SDS011;7622;42.724;23.250;2024-03-23T11:40:46;6.47;;;4.50;;
15049;SDS011;7622;42.724;23.250;2024-03-23T11:43:14;3.80;;;3.50;;
15049;SDS011;7622;42.724;23.250;2024-03-23T11:45:42;6.10;;;4.50;;
15049;SDS011;7622;42.724;23.250;2024-03-23T11:48:10;6.20;;;3.90;;
15049;SDS011;7622;42.724;23.250;2024-03-23T11:50:38;6.93;;;4.10;;
15049;SDS011;7622;42.724;23.250;2024-03-23T11:53:16;4.70;;;4.10;;
15049;SDS011;7622;42.724;23.250;2024-03-23T11:55:47;6.57;;;3.80;;
15049;SDS011;7622;42.724;23.250;2024-03-23T11:58:15;6.20;;;3.97;;
15049;SDS011;7622;42.724;23.250;2024-03-23T12:00:49;5.37;;;3.80;;
15049;SDS011;7622;42.724;23.250;2024-03-23T12:03:17;4.50;;;3.63;;
15049;SDS011;7622;42.724;23.250;2024-03-23T12:05:46;6.53;;;3.40;;
15049;SDS011;7622;42.724;23.250;2024-03-23T12:08:18;5.47;;;3.90;;
15049;SDS011;7622;42.724;23.250;2024-03-23T12:10:48;8.17;;;4.30;;
15049;SDS011;7622;42.724;23.250;2024-03-23T12:13:17;3.77;;;3.40;;
15049;SDS011;7622;42.724;23.250;2024-03-23T12:15:44;6.10;;;4.23;;
15049;SDS011;7622;42.724;23.250;2024-03-23T12:18:11;7.60;;;4.07;;
15049;SDS011;7622;42.724;23.250;2024-03-23T12:20:37;6.67;;;3.63;;
15049;SDS011;7622;42.724;23.250;2024-03-23T12:23:04;4.97;;;3.43;;
15049;SDS011;7622;42.724;23.250;2024-03-23T12:25:31;2.50;;;2.30;;
15049;SDS011;7622;42.724;23.250;2024-03-23T12:27:59;9.93;;;3.13;;
15049;SDS011;7622;42.724;23.250;2024-03-23T12:30:25;5.73;;;2.37;;
15049;SDS011;7622;42.724;23.250;2024-03-23T12:32:52;4.23;;;2.10;;
15049;SDS011;7622;42.724;23.250;2024-03-23T12:35:18;2.30;;;2.10;;
15049;SDS011;7622;42.724;23.250;2024-03-23T12:37:45;2.90;;;2.00;;
15049;SDS011;7622;42.724;23.250;2024-03-23T12:40:11;2.50;;;2.30;;
15049;SDS011;7622;42.724;23.250;2024-03-23T12:42:38;5.27;;;1.93;;
15049;SDS011;7622;42.724;23.250;2024-03-23T12:45:05;3.50;;;1.80;;
15049;SDS011;7622;42.724;23.250;2024-03-23T12:47:33;5.10;;;2.20;;
15049;SDS011;7622;42.724;23.250;2024-03-23T12:49:58;1.50;;;1.40;;
15049;SDS011;7622;42.724;23.250;2024-03-23T12:52:25;2.80;;;1.70;;
15049;SDS011;7622;42.724;23.250;2024-03-23T12:54:53;4.10;;;1.60;;
15049;SDS011;7622;42.724;23.250;2024-03-23T12:57:22;1.63;;;1.47;;
15049;SDS011;7622;42.724;23.250;2024-03-23T12:59:49;1.80;;;1.70;;
15049;SDS011;7622;42.724;23.250;2024-03-23T13:02:18;4.03;;;1.77;;
15049;SDS011;7622;42.724;23.250;2024-03-23T13:04:45;2.80;;;1.90;;
15049;SDS011;7622;42.724;23.250;2024-03-23T13:07:13;2.93;;;1.93;;
15049;SDS011;7622;42.724;23.250;2024-03-23T13:09:38;2.93;;;1.90;;
15049;SDS011;7622;42.724;23.250;2024-03-23T13:12:05;4.43;;;1.87;;
15049;SDS011;7622;42.724;23.250;2024-03-23T13:14:31;10.37;;;3.40;;
15049;SDS011;7622;42.724;23.250;2024-03-23T13:16:58;9.37;;;2.97;;
15049;SDS011;7622;42.724;23.250;2024-03-23T13:19:26;4.60;;;2.30;;
15049;SDS011;7622;42.724;23.250;2024-03-23T13:21:55;3.73;;;2.10;;
15049;SDS011;7622;42.724;23.250;2024-03-23T13:24:21;2.30;;;2.20;;
15049;SDS011;7622;42.724;23.250;2024-03-23T13:26:49;3.10;;;2.47;;
15049;SDS011;7622;42.724;23.250;2024-03-23T13:29:15;2.70;;;1.90;;
15049;SDS011;7622;42.724;23.250;2024-03-23T13:31:42;2.97;;;2.60;;
15049;SDS011;7622;42.724;23.250;2024-03-23T13:34:08;2.63;;;2.00;;
15049;SDS011;7622;42.724;23.250;2024-03-23T13:36:36;5.07;;;2.20;;
15049;SDS011;7622;42.724;23.250;2024-03-23T13:39:02;2.10;;;1.90;;
15049;SDS011;7622;42.724;23.250;2024-03-23T13:41:31;2.57;;;1.87;;
15049;SDS011;7622;42.724;23.250;2024-03-23T13:43:57;3.67;;;2.20;;
15049;SDS011;7622;42.724;23.250;2024-03-23T13:46:24;2.63;;;2.43;;
15049;SDS011;7622;42.724;23.250;2024-03-23T13:48:49;1.80;;;1.70;;
15049;SDS011;7622;42.724;23.250;2024-03-23T13:51:22;3.03;;;2.40;;
15049;SDS011;7622;42.724;23.250;2024-03-23T13:53:51;2.27;;;2.03;;
15049;SDS011;7622;42.724;23.250;2024-03-23T13:56:17;2.17;;;2.00;;
15049;SDS011;7622;42.724;23.250;2024-03-23T13:58:43;2.63;;;1.77;;
15049;SDS011;7622;42.724;23.250;2024-03-23T14:01:12;3.07;;;1.97;;
15049;SDS011;7622;42.724;23.250;2024-03-23T14:03:41;3.77;;;2.43;;
15049;SDS011;7622;42.724;23.250;2024-03-23T14:06:08;4.13;;;2.83;;
15049;SDS011;7622;42.724;23.250;2024-03-23T14:08:34;5.13;;;2.87;;
15049;SDS011;7622;42.724;23.250;2024-03-23T14:11:05;2.53;;;2.20;;
15049;SDS011;7622;42.724;23.250;2024-03-23T14:13:31;2.97;;;2.53;;
15049;SDS011;7622;42.724;23.250;2024-03-23T14:15:58;2.30;;;2.10;;
15049;SDS011;7622;42.724;23.250;2024-03-23T14:18:24;3.43;;;2.87;;
15049;SDS011;7622;42.724;23.250;2024-03-23T14:20:51;3.27;;;2.47;;
15049;SDS011;7622;42.724;23.250;2024-03-23T14:23:18;3.20;;;2.37;;
15049;SDS011;7622;42.724;23.250;2024-03-23T14:25:45;3.67;;;2.47;;
15049;SDS011;7622;42.724;23.250;2024-03-23T14:28:12;3.60;;;2.63;;
15049;SDS011;7622;42.724;23.250;2024-03-23T14:30:41;3.10;;;2.80;;
15049;SDS011;7622;42.724;23.250;2024-03-23T14:33:07;2.80;;;2.60;;
15049;SDS011;7622;42.724;23.250;2024-03-23T14:35:34;6.30;;;2.80;;
15049;SDS011;7622;42.724;23.250;2024-03-23T14:38:00;3.10;;;2.90;;
15049;SDS011;7622;42.724;23.250;2024-03-23T14:40:27;5.47;;;3.27;;
15049;SDS011;7622;42.724;23.250;2024-03-23T14:42:53;4.20;;;3.10;;
15049;SDS011;7622;42.724;23.250;2024-03-23T14:45:21;3.67;;;3.33;;
15049;SDS011;7622;42.724;23.250;2024-03-23T14:47:49;6.47;;;3.27;;
15049;SDS011;7622;42.724;23.250;2024-03-23T14:50:16;3.90;;;2.60;;
15049;SDS011;7622;42.724;23.250;2024-03-23T14:52:42;2.87;;;2.60;;
15049;SDS011;7622;42.724;23.250;2024-03-23T14:55:10;2.93;;;2.63;;
15049;SDS011;7622;42.724;23.250;2024-03-23T14:57:36;5.20;;;2.87;;
15049;SDS011;7622;42.724;23.250;2024-03-23T15:00:05;3.20;;;2.92;;
15049;SDS011;7622;42.724;23.250;2024-03-23T15:02:34;4.43;;;2.93;;
15049;SDS011;7622;42.724;23.250;2024-03-23T15:05:00;3.40;;;3.10;;
15049;SDS011;7622;42.724;23.250;2024-03-23T15:07:27;3.77;;;3.20;;
15049;SDS011;7622;42.724;23.250;2024-03-23T15:09:54;3.10;;;2.90;;
15049;SDS011;7622;42.724;23.250;2024-03-23T15:12:20;3.13;;;2.77;;
15049;SDS011;7622;42.724;23.250;2024-03-23T15:14:47;4.07;;;2.37;;
15049;SDS011;7622;42.724;23.250;2024-03-23T15:17:13;7.87;;;3.40;;
15049;SDS011;7622;42.724;23.250;2024-03-23T15:19:41;4.47;;;3.10;;
15049;SDS011;7622;42.724;23.250;2024-03-23T15:22:07;3.83;;;2.73;;
15049;SDS011;7622;42.724;23.250;2024-03-23T15:24:35;3.13;;;2.67;;
15049;SDS011;7622;42.724;23.250;2024-03-23T15:27:01;2.77;;;2.57;;
15049;SDS011;7622;42.724;23.250;2024-03-23T15:29:28;3.37;;;3.00;;
15049;SDS011;7622;42.724;23.250;2024-03-23T15:31:53;4.10;;;3.07;;
15049;SDS011;7622;42.724;23.250;2024-03-23T15:34:20;3.20;;;2.50;;